Time;durP1;ratioP1;P1;durP2;ratioP2;P2;SDS_P1;SDS_P2;PMS_P1;PMS_P2;Temp;Humidity;BMP_temperature;BMP_pressure;BME280_temperature;BME280_humidity;BME280_pressure;Samples;Min_cycle;Max_cycle;Signal;HPM_P1;HPM_P2
2022/10/23 00:00:37;;;;;;;14.65;9.52;;;;;;;10.41;100.00;101393.53;6179509;23;20005;-89
2022/10/23 00:03:03;;;;;;;18.00;9.43;;;;;;;10.41;100.00;101390.94;6180301;23;20032;-89
2022/10/23 00:05:29;;;;;;;17.33;10.10;;;;;;;10.41;100.00;101382.31;6181347;23;20332;-89
2022/10/23 00:07:58;;;;;;;17.42;10.05;;;;;;;10.42;100.00;101381.44;6181098;23;20431;-89
2022/10/23 00:10:25;;;;;;;17.35;10.10;;;;;;;10.42;100.00;101387.47;6180507;23;20000;-87
2022/10/23 00:12:51;;;;;;;17.05;9.40;;;;;;;10.41;100.00;101377.97;6181685;23;20056;-86
2022/10/23 00:15:20;;;;;;;16.40;9.60;;;;;;;10.44;100.00;101396.06;6178089;23;20012;-86
2022/10/23 00:17:46;;;;;;;17.58;9.45;;;;;;;10.44;100.00;101393.47;6180015;23;20586;-89
2022/10/23 00:20:13;;;;;;;14.32;9.30;;;;;;;10.43;100.00;101386.59;6178473;23;20005;-88
2022/10/23 00:22:39;;;;;;;16.35;9.80;;;;;;;10.43;100.00;101386.59;6182008;23;20080;-88
2022/10/23 00:25:05;;;;;;;21.77;9.45;;;;;;;10.42;100.00;101384.03;6181082;23;20059;-88
2022/10/23 00:27:31;;;;;;;15.65;9.30;;;;;;;10.40;100.00;101388.38;6181240;23;20534;-89
2022/10/23 00:29:56;;;;;;;14.52;9.32;;;;;;;10.40;100.00;101384.03;6181168;23;20553;-88
2022/10/23 00:32:22;;;;;;;18.10;9.43;;;;;;;10.38;100.00;101383.19;6179844;23;20478;-88
2022/10/23 00:34:47;;;;;;;14.88;8.88;;;;;;;10.40;100.00;101394.41;6180424;23;20108;-89
2022/10/23 00:37:12;;;;;;;14.85;9.20;;;;;;;10.40;100.00;101393.53;6181228;23;20028;-89
2022/10/23 00:39:38;;;;;;;15.63;9.27;;;;;;;10.39;100.00;101386.66;6179271;23;20005;-89
2022/10/23 00:42:03;;;;;;;15.15;9.18;;;;;;;10.38;100.00;101388.38;6178916;23;20019;-89
2022/10/23 00:44:28;;;;;;;16.45;9.48;;;;;;;10.40;100.00;101388.38;6180808;23;20052;-88
2022/10/23 00:46:55;;;;;;;15.83;9.10;;;;;;;10.34;100.00;101378.94;6180972;23;20005;-89
2022/10/23 00:49:21;;;;;;;18.90;10.07;;;;;;;10.38;100.00;101382.34;6179878;23;20435;-89
2022/10/23 00:51:50;;;;;;;15.82;9.75;;;;;;;10.40;100.00;101384.03;6180460;23;20058;-89
2022/10/23 00:54:18;;;;;;;16.48;8.90;;;;;;;10.39;100.00;101378.88;6181036;23;20036;-88
2022/10/23 00:56:44;;;;;;;13.43;9.10;;;;;;;10.40;100.00;101375.41;6179148;23;20036;-89
2022/10/23 00:59:10;;;;;;;15.25;8.80;;;;;;;10.42;100.00;101384.88;6181092;23;20043;-88
2022/10/23 01:01:36;;;;;;;16.92;8.68;;;;;;;10.42;100.00;101386.63;6180870;23;20362;-89
2022/10/23 01:04:03;;;;;;;13.55;8.68;;;;;;;10.38;100.00;101374.56;6180774;23;20007;-89
2022/10/23 01:06:39;;;;;;;15.88;8.90;;;;;;;10.44;100.00;101385.69;6180389;23;20009;-89
2022/10/23 01:09:28;;;;;;;17.00;8.75;;;;;;;10.43;100.00;101383.16;6179053;23;20039;-89
2022/10/23 01:12:18;;;;;;;14.65;8.30;;;;;;;10.39;100.00;101373.69;6179562;23;20076;-89
2022/10/23 01:14:58;;;;;;;12.93;8.88;;;;;;;10.46;100.00;101372.72;6180692;23;20072;-89
2022/10/23 01:17:31;;;;;;;13.52;8.55;;;;;;;10.46;100.00;101372.72;6179462;23;20012;-89
2022/10/23 01:20:28;;;;;;;16.30;9.07;;;;;;;10.47;100.00;101375.28;6181098;23;20472;-88
2022/10/23 01:23:26;;;;;;;15.35;8.15;;;;;;;10.45;100.00;101368.41;6182920;23;20001;-89
2022/10/23 01:26:00;;;;;;;14.23;8.30;;;;;;;10.46;100.00;101370.97;6182130;23;20072;-89
2022/10/23 01:28:34;;;;;;;16.17;9.20;;;;;;;10.43;100.00;101352.91;6182549;23;20056;-89
2022/10/23 01:31:01;;;;;;;;;;;;;;;10.49;100.00;101363.19;6183479;23;20011;-89
2022/10/23 01:33:34;;;;;;;13.13;7.78;;;;;;;10.43;100.00;101350.31;6181643;23;19954;-89
2022/10/23 01:36:03;;;;;;;14.15;8.05;;;;;;;10.44;100.00;101361.53;6182394;23;20434;-88
2022/10/23 01:38:54;;;;;;;13.02;7.90;;;;;;;10.42;100.00;101358.09;6181507;23;20036;-89
2022/10/23 01:41:25;;;;;;;12.82;8.10;;;;;;;10.38;100.00;101357.28;6182183;23;20490;-89
2022/10/23 01:44:00;;;;;;;14.15;8.05;;;;;;;10.36;100.00;101348.69;6182817;23;20446;-89
2022/10/23 01:46:26;;;;;;;12.43;8.18;;;;;;;10.35;100.00;101349.56;6181086;23;20012;-89
2022/10/23 01:48:54;;;;;;;18.48;8.07;;;;;;;10.32;100.00;101349.59;6182785;23;20469;-88
2022/10/23 01:51:24;;;;;;;13.55;8.38;;;;;;;10.23;100.00;101331.63;6182191;23;20451;-89
2022/10/23 01:53:54;;;;;;;14.77;8.27;;;;;;;10.27;100.00;101341.91;6180695;23;20028;-89
2022/10/23 01:56:23;;;;;;;13.95;7.82;;;;;;;10.29;100.00;101334.97;6182440;23;20004;-89
2022/10/23 01:58:52;;;;;;;14.88;8.35;;;;;;;10.25;100.00;101328.09;6182662;23;20005;-88
2022/10/23 02:01:20;;;;;;;14.88;7.45;;;;;;;10.26;100.00;101323.78;6182156;23;20094;-90
2022/10/23 02:03:47;;;;;;;19.92;8.45;;;;;;;10.21;100.00;101321.25;6180878;23;20009;-89
2022/10/23 02:06:13;;;;;;;13.88;7.78;;;;;;;10.23;100.00;101329.88;6182067;23;20032;-88
2022/10/23 02:08:38;;;;;;;14.70;7.57;;;;;;;10.23;100.00;101322.13;6182696;23;20061;-89
2022/10/23 02:11:11;;;;;;;13.60;7.45;;;;;;;10.23;100.00;101326.44;6180801;23;20387;-89
2022/10/23 02:13:58;;;;;;;20.20;8.30;;;;;;;10.23;100.00;101319.53;6182559;23;20059;-89
2022/10/23 02:16:40;;;;;;;12.88;7.32;;;;;;;10.21;100.00;101323.84;6182075;23;20055;-88
2022/10/23 02:19:11;;;;;;;14.40;7.25;;;;;;;10.20;100.00;101322.13;6181734;23;20028;-89
2022/10/23 02:21:57;;;;;;;14.95;7.47;;;;;;;10.17;100.00;101317.00;6182572;23;20009;-88
2022/10/23 02:24:30;;;;;;;14.43;7.22;;;;;;;10.14;100.00;101324.78;6182234;23;20001;-89
2022/10/23 02:27:00;;;;;;;13.68;7.38;;;;;;;10.13;100.00;101319.63;6180077;23;20076;-89
2022/10/23 02:29:47;;;;;;;14.68;6.97;;;;;;;10.13;100.00;101325.66;6182709;23;20513;-88
2022/10/23 02:32:14;;;;;;;15.10;7.88;;;;;;;10.13;100.00;101319.63;6178743;23;20001;-89
2022/10/23 02:34:39;;;;;;;15.23;8.25;;;;;;;10.12;100.00;101323.09;6181724;23;20016;-89
2022/10/23 02:37:05;;;;;;;13.73;7.70;;;;;;;10.10;100.00;101319.69;6181898;23;20005;-88
2022/10/23 02:39:31;;;;;;;16.27;8.00;;;;;;;10.10;100.00;101315.34;6182395;23;20032;-89
2022/10/23 02:42:09;;;;;;;12.48;6.93;;;;;;;10.09;100.00;101305.88;6182192;23;20008;-89
2022/10/23 02:44:43;;;;;;;15.68;7.32;;;;;;;10.10;100.00;101304.16;6179836;23;20014;-89
2022/10/23 02:47:15;;;;;;;10.90;7.03;;;;;;;10.09;100.00;101289.47;6181379;23;20028;-89
2022/10/23 02:49:52;;;;;;;17.85;8.38;;;;;;;10.10;100.00;101289.44;6180332;23;20312;-88
2022/10/23 02:52:31;;;;;;;14.10;7.95;;;;;;;10.11;100.00;101275.59;6182118;23;20566;-88
2022/10/23 02:55:02;;;;;;;22.58;8.18;;;;;;;10.14;100.00;101261.75;6181103;23;20053;-89
2022/10/23 02:57:41;;;;;;;14.85;7.80;;;;;;;10.12;100.00;101251.41;6182278;23;20005;-89
2022/10/23 03:00:14;;;;;;;15.23;8.30;;;;;;;10.18;100.00;101246.16;6179784;23;20044;-89
2022/10/23 03:02:45;;;;;;;16.30;8.25;;;;;;;10.18;100.00;101246.16;6182438;23;20450;-89
2022/10/23 03:05:15;;;;;;;17.52;8.52;;;;;;;10.18;100.00;101243.56;6180346;23;20053;-88
2022/10/23 03:07:41;;;;;;;17.48;8.95;;;;;;;10.21;100.00;101233.19;6182246;23;20000;-88
2022/10/23 03:10:07;;;;;;;19.13;9.35;;;;;;;10.28;100.00;101239.97;6180185;23;20052;-87
2022/10/23 03:12:33;;;;;;;22.80;9.60;;;;;;;10.29;100.00;101227.88;6180377;23;20495;-86
2022/10/23 03:14:59;;;;;;;18.70;9.00;;;;;;;10.33;100.00;101229.53;6179911;23;20005;-87
2022/10/23 03:17:24;;;;;;;15.57;8.63;;;;;;;10.36;100.00;101229.50;6181817;23;20000;-86
2022/10/23 03:19:50;;;;;;;18.98;8.95;;;;;;;10.36;100.00;101224.31;6178180;23;20398;-87
2022/10/23 03:22:15;;;;;;;15.52;8.35;;;;;;;10.37;100.00;101223.44;6181022;23;20023;-86
2022/10/23 03:24:40;;;;;;;15.68;8.27;;;;;;;10.39;100.00;101210.44;6179944;23;20005;-86
2022/10/23 03:27:06;;;;;;;16.75;8.25;;;;;;;10.43;100.00;101217.28;6180174;23;20450;-86
2022/10/23 03:29:31;;;;;;;20.88;8.98;;;;;;;10.49;100.00;101214.59;6181306;23;20450;-87
2022/10/23 03:31:56;;;;;;;14.32;8.48;;;;;;;10.49;100.00;101214.59;6180219;23;20056;-86
2022/10/23 03:34:22;;;;;;;19.65;8.02;;;;;;;10.54;100.00;101207.56;6181337;23;20424;-86
2022/10/23 03:36:47;;;;;;;17.63;8.15;;;;;;;10.57;100.00;101210.13;6180006;23;20028;-86
2022/10/23 03:39:12;;;;;;;15.38;8.05;;;;;;;10.59;100.00;101204.00;6181035;23;20075;-87
2022/10/23 03:41:38;;;;;;;16.80;8.23;;;;;;;10.59;100.00;101197.97;6181314;23;20382;-86
2022/10/23 03:44:03;;;;;;;18.75;8.43;;;;;;;10.63;100.00;101195.31;6179095;23;20012;-86
2022/10/23 03:46:28;;;;;;;19.98;8.07;;;;;;;10.65;100.00;101190.94;6179905;23;20012;-87
2022/10/23 03:48:57;;;;;;;14.80;7.65;;;;;;;10.65;100.00;101184.91;6179942;23;20439;-87
2022/10/23 03:51:22;;;;;;;18.33;7.85;;;;;;;10.67;100.00;101175.34;6181586;23;20024;-86
2022/10/23 03:53:48;;;;;;;16.65;7.90;;;;;;;10.72;100.00;101190.81;6178442;23;20071;-87
2022/10/23 03:56:13;;;;;;;12.82;7.35;;;;;;;10.74;100.00;101192.50;6180714;23;20008;-86
2022/10/23 03:58:39;;;;;;;17.42;7.45;;;;;;;10.73;100.00;101176.97;6155171;23;20031;-87
2022/10/23 04:01:04;;;;;;;13.48;7.13;;;;;;;10.78;100.00;101188.13;6181224;23;20012;-86
2022/10/23 04:03:29;;;;;;;13.70;7.28;;;;;;;10.76;100.00;101185.56;6180217;23;20028;-87
2022/10/23 04:05:55;;;;;;;16.15;7.68;;;;;;;10.79;100.00;101188.09;6181172;23;20016;-86
2022/10/23 04:08:20;;;;;;;12.23;7.20;;;;;;;10.84;100.00;101177.66;6181448;23;20007;-87
2022/10/23 04:10:46;;;;;;;13.50;6.78;;;;;;;10.89;100.00;101173.22;6181365;23;20052;-86
2022/10/23 04:13:11;;;;;;;15.88;7.43;;;;;;;10.87;100.00;101162.00;6179345;23;19997;-87
2022/10/23 04:15:36;;;;;;;13.40;7.07;;;;;;;10.93;100.00;101167.06;6181258;23;20001;-86
2022/10/23 04:18:02;;;;;;;15.35;7.47;;;;;;;10.91;100.00;101151.56;6181341;23;20001;-87
2022/10/23 04:20:27;;;;;;;18.05;8.00;;;;;;;10.95;100.00;101155.78;6179682;23;20013;-89
2022/10/23 04:22:53;;;;;;;16.35;8.40;;;;;;;10.95;100.00;101144.56;6181799;23;20055;-88
2022/10/23 04:25:18;;;;;;;21.57;9.27;;;;;;;10.99;100.00;101147.06;6181179;23;20004;-89
2022/10/23 04:27:43;;;;;;;25.10;9.85;;;;;;;11.02;100.00;101146.16;6181091;23;20243;-87
2022/10/23 04:30:09;;;;;;;27.65;11.23;;;;;;;10.99;100.00;101148.78;6180724;23;19997;-88
2022/10/23 04:32:35;;;;;;;24.45;10.45;;;;;;;11.03;100.00;101153.03;6181393;23;20412;-89
2022/10/23 04:35:00;;;;;;;21.87;10.00;;;;;;;11.03;100.00;101145.25;6181361;23;20604;-89
2022/10/23 04:37:26;;;;;;;25.80;11.60;;;;;;;11.06;100.00;101150.38;6179970;23;20275;-88
2022/10/23 04:39:52;;;;;;;20.92;9.70;;;;;;;11.11;100.00;101158.94;6179947;23;20012;-88
2022/10/23 04:42:17;;;;;;;21.88;9.60;;;;;;;11.15;100.00;101151.94;6180595;23;20198;-88
2022/10/23 04:44:42;;;;;;;20.73;9.43;;;;;;;11.17;100.00;101143.25;6181475;23;20327;-88
2022/10/23 04:47:08;;;;;;;21.40;9.75;;;;;;;11.21;100.00;101136.22;6181000;23;20233;-89
2022/10/23 04:49:33;;;;;;;18.42;8.85;;;;;;;11.27;100.00;101138.69;6180894;23;20005;-88
2022/10/23 04:51:58;;;;;;;16.35;8.75;;;;;;;11.31;100.00;101140.34;6181551;23;20005;-89
2022/10/23 04:54:24;;;;;;;18.17;8.00;;;;;;;11.32;100.00;101136.88;6178921;23;20048;-90
2022/10/23 04:56:49;;;;;;;16.35;8.00;;;;;;;11.34;100.00;101132.47;6183567;23;20237;-88
2022/10/23 04:59:14;;;;;;;18.25;8.13;;;;;;;11.36;100.00;101141.09;6183441;23;20021;-90
2022/10/23 05:01:40;;;;;;;16.92;7.78;;;;;;;11.39;100.00;101143.63;6182977;23;20012;-89
2022/10/23 05:04:05;;;;;;;16.00;7.63;;;;;;;11.42;100.00;101131.44;6180922;23;20009;-89
2022/10/23 05:06:30;;;;;;;15.63;7.70;;;;;;;11.42;100.00;101128.81;6183116;23;20020;-89
2022/10/23 05:08:56;;;;;;;11.60;7.30;;;;;;;11.47;100.00;101133.91;6182739;23;20004;-89
2022/10/23 05:11:21;;;;;;;13.07;7.10;;;;;;;11.47;100.00;101134.75;6181122;23;20464;-89
2022/10/23 05:13:47;;;;;;;11.40;6.80;;;;;;;11.45;100.00;101125.31;6181700;23;20005;-89
2022/10/23 05:16:25;;;;;;;14.45;7.03;;;;;;;11.49;100.00;101129.53;6183486;23;20316;-89
2022/10/23 05:18:50;;;;;;;13.48;7.13;;;;;;;11.49;100.00;101124.34;6181962;23;20061;-86
2022/10/23 05:21:25;;;;;;;15.60;7.63;;;;;;;11.45;100.00;101122.72;6182721;23;20021;-87
2022/10/23 05:23:52;;;;;;;14.43;7.38;;;;;;;11.43;100.00;101116.72;6181759;23;20689;-87
2022/10/23 05:26:17;;;;;;;15.52;7.43;;;;;;;11.44;100.00;101116.69;6182137;23;19997;-86
2022/10/23 05:28:43;;;;;;;11.40;6.95;;;;;;;11.43;100.00;101116.72;6183100;23;20005;-86
2022/10/23 05:31:08;;;;;;;14.50;7.53;;;;;;;11.42;100.00;101113.25;6182467;23;20019;-87
2022/10/23 05:33:35;;;;;;;12.85;7.15;;;;;;;11.42;100.00;101121.03;6183303;23;20000;-86
2022/10/23 05:36:04;;;;;;;15.52;7.35;;;;;;;11.44;100.00;101115.81;6182184;23;20493;-86
2022/10/23 05:38:32;;;;;;;13.82;7.10;;;;;;;11.43;100.00;101114.97;6182524;23;20053;-87
2022/10/23 05:40:58;;;;;;;12.23;6.53;;;;;;;11.39;100.00;101110.75;6182074;23;20005;-86
2022/10/23 05:43:26;;;;;;;10.23;7.20;;;;;;;11.39;100.00;101113.34;6181293;23;20029;-86
2022/10/23 05:45:51;;;;;;;12.80;6.68;;;;;;;11.40;100.00;101106.38;6182696;23;20004;-87
2022/10/23 05:48:17;;;;;;;13.60;7.18;;;;;;;11.37;100.00;101107.31;6182567;23;20423;-88
2022/10/23 05:50:42;;;;;;;11.18;7.28;;;;;;;11.36;100.00;101113.41;6181122;23;20004;-89
2022/10/23 05:53:09;;;;;;;16.60;8.30;;;;;;;11.33;100.00;101102.22;6180405;23;20084;-89
2022/10/23 05:55:35;;;;;;;13.52;7.47;;;;;;;11.37;100.00;101106.47;6182128;23;20001;-89
2022/10/23 05:58:01;;;;;;;18.38;8.30;;;;;;;11.36;100.00;101100.41;6182290;23;20004;-89
2022/10/23 06:00:27;;;;;;;13.75;7.47;;;;;;;11.36;100.00;101095.22;6182023;23;20545;-89
2022/10/23 06:02:52;;;;;;;13.63;7.20;;;;;;;11.35;100.00;101098.72;6183193;23;20016;-89
2022/10/23 06:05:17;;;;;;;13.00;6.68;;;;;;;11.34;100.00;101096.13;6182258;23;20005;-89
2022/10/23 06:07:43;;;;;;;12.35;7.70;;;;;;;11.33;100.00;101089.25;6180652;23;20001;-89
2022/10/23 06:10:08;;;;;;;16.77;7.93;;;;;;;11.31;100.00;101080.66;6182115;23;20011;-89
2022/10/23 06:12:34;;;;;;;13.13;7.13;;;;;;;11.31;100.00;101085.84;6182880;23;20077;-88
2022/10/23 06:14:59;;;;;;;14.02;7.68;;;;;;;11.34;100.00;101084.03;6181873;23;20099;-89
2022/10/23 06:17:26;;;;;;;16.23;8.15;;;;;;;11.36;100.00;101090.03;6179402;23;20008;-89
2022/10/23 06:19:51;;;;;;;16.30;8.13;;;;;;;11.37;100.00;101071.00;6182656;23;20549;-87
2022/10/23 06:22:17;;;;;;;16.65;8.25;;;;;;;11.37;100.00;101063.19;6179717;23;20007;-87
2022/10/23 06:24:42;;;;;;;17.55;8.50;;;;;;;11.38;100.00;101064.91;6181927;23;20561;-87
2022/10/23 06:27:08;;;;;;;15.55;8.05;;;;;;;11.41;100.00;101071.75;6182453;23;20023;-86
2022/10/23 06:29:33;;;;;;;13.00;7.03;;;;;;;11.41;100.00;101069.16;6181024;23;20084;-87
2022/10/23 06:31:58;;;;;;;13.15;8.15;;;;;;;11.42;100.00;101073.47;6180215;23;20011;-86
2022/10/23 06:34:24;;;;;;;14.20;8.18;;;;;;;11.47;100.00;101076.78;6182206;23;20502;-87
2022/10/23 06:36:49;;;;;;;18.77;7.93;;;;;;;11.44;100.00;101066.50;6180566;23;20008;-86
2022/10/23 06:39:14;;;;;;;13.77;7.45;;;;;;;11.48;100.00;101068.97;6180303;23;20386;-87
2022/10/23 06:41:40;;;;;;;16.08;8.38;;;;;;;11.51;100.00;101070.66;6182207;23;20001;-87
2022/10/23 06:44:07;;;;;;;16.25;8.35;;;;;;;11.55;100.00;101061.03;6182413;23;20005;-87
2022/10/23 06:46:34;;;;;;;15.52;7.80;;;;;;;11.54;100.00;101056.72;6181134;23;20418;-86
2022/10/23 06:48:59;;;;;;;18.92;8.40;;;;;;;11.58;100.00;101056.66;6182320;23;20047;-89
2022/10/23 06:51:28;;;;;;;12.63;7.47;;;;;;;11.59;100.00;101049.72;6180217;23;20000;-89
2022/10/23 06:53:54;;;;;;;12.57;7.38;;;;;;;11.59;100.00;101049.72;6181991;23;20013;-89
2022/10/23 06:56:19;;;;;;;14.25;7.43;;;;;;;11.62;100.00;101037.50;6181134;23;20001;-89
2022/10/23 06:58:44;;;;;;;11.43;7.22;;;;;;;11.67;100.00;101042.59;6182520;23;20000;-89
2022/10/23 07:01:11;;;;;;;13.73;7.60;;;;;;;11.67;100.00;101040.00;6181123;23;20032;-89
2022/10/23 07:03:36;;;;;;;15.95;8.05;;;;;;;11.71;100.00;101033.81;6182589;23;20290;-89
2022/10/23 07:06:06;;;;;;;12.88;7.60;;;;;;;11.77;100.00;101044.94;6181804;23;20036;-89
2022/10/23 07:08:32;;;;;;;13.52;7.78;;;;;;;11.82;100.00;101039.63;6182176;23;20084;-89
2022/10/23 07:11:05;;;;;;;15.00;8.07;;;;;;;11.85;100.00;101049.94;6177639;23;20044;-89
2022/10/23 07:13:31;;;;;;;16.30;8.10;;;;;;;11.86;100.00;101044.72;6180444;23;20028;-89
2022/10/23 07:15:57;;;;;;;16.67;8.18;;;;;;;11.92;100.00;101042.84;6180197;23;20001;-89
2022/10/23 07:18:22;;;;;;;16.25;8.18;;;;;;;11.97;100.00;101031.44;6180095;23;20063;-87
2022/10/23 07:20:48;;;;;;;11.90;7.03;;;;;;;12.03;100.00;101041.66;6181097;23;20084;-87
2022/10/23 07:23:15;;;;;;;17.40;7.85;;;;;;;12.08;100.00;101044.13;6180121;23;20009;-86
2022/10/23 07:25:40;;;;;;;15.57;8.20;;;;;;;12.09;100.00;101030.25;6179656;23;20001;-87
2022/10/23 07:28:06;;;;;;;15.85;8.15;;;;;;;12.17;100.00;101036.09;6181754;23;20001;-87
2022/10/23 07:30:31;;;;;;;12.13;7.63;;;;;;;12.20;100.00;101030.81;6181974;23;19997;-87
2022/10/23 07:32:57;;;;;;;17.77;8.77;;;;;;;12.24;100.00;101024.63;6182242;23;20585;-87
2022/10/23 07:35:22;;;;;;;15.50;7.50;;;;;;;12.26;100.00;101033.25;6181401;23;20005;-87
2022/10/23 07:37:50;;;;;;;14.40;7.82;;;;;;;12.26;100.00;101020.25;6180823;23;20532;-87
2022/10/23 07:40:17;;;;;;;14.95;7.97;;;;;;;12.35;100.00;101021.75;6180590;23;20431;-87
2022/10/23 07:42:43;;;;;;;19.67;8.95;;;;;;;12.39;100.00;101016.41;6181102;23;20001;-86
2022/10/23 07:45:08;;;;;;;12.73;7.68;;;;;;;12.45;100.00;101015.38;6179666;23;20008;-87
2022/10/23 07:47:34;;;;;;;15.02;7.70;;;;;;;12.46;100.00;101012.75;6180695;23;20008;-87
2022/10/23 07:49:59;;;;;;;11.85;7.22;;;;;;;12.55;100.00;101012.50;6179573;23;20562;-87
2022/10/23 07:52:25;;;;;;;12.07;7.70;;;;;;;12.59;100.00;101019.28;6181184;23;20084;-87
2022/10/23 07:54:51;;;;;;;15.70;8.50;;;;;;;12.64;100.00;101024.34;6178784;23;20023;-87
2022/10/23 07:57:16;;;;;;;14.60;8.00;;;;;;;12.64;100.00;100993.16;6181381;23;20382;-88
2022/10/23 07:59:42;;;;;;;13.52;7.90;;;;;;;12.74;100.00;101002.38;6180471;23;20001;-87
2022/10/23 08:02:11;;;;;;;13.63;7.55;;;;;;;12.79;100.00;101005.69;6181553;23;20001;-87
2022/10/23 08:04:36;;;;;;;13.02;8.27;;;;;;;12.82;100.00;100994.34;6182275;23;20039;-87
2022/10/23 08:07:04;;;;;;;15.70;8.15;;;;;;;12.89;100.00;100996.72;6179764;23;20005;-87
2022/10/23 08:09:30;;;;;;;13.75;7.80;;;;;;;12.99;100.00;101002.47;6179017;23;20347;-87
2022/10/23 08:11:55;;;;;;;14.35;7.88;;;;;;;13.02;100.00;100990.25;6180416;23;20447;-87
2022/10/23 08:14:21;;;;;;;13.88;7.93;;;;;;;13.11;100.00;100996.88;6179859;23;20001;-88
2022/10/23 08:16:49;;;;;;;15.55;7.68;;;;;;;13.15;100.00;100995.94;6181507;23;20001;-88
2022/10/23 08:19:14;;;;;;;17.02;7.80;;;;;;;13.18;100.00;100990.63;6178953;23;20040;-88
2022/10/23 08:21:39;;;;;;;12.15;7.47;;;;;;;13.25;100.00;100986.91;6180940;23;20036;-88
2022/10/23 08:24:05;;;;;;;13.77;7.43;;;;;;;13.34;100.00;100983.19;6181361;23;20541;-88
2022/10/23 08:26:30;;;;;;;14.55;7.53;;;;;;;13.49;100.00;100987.88;6180733;23;20015;-88
2022/10/23 08:28:59;;;;;;;14.60;7.43;;;;;;;13.56;100.00;100984.19;6180167;23;20350;-90
2022/10/23 08:31:25;;;;;;;17.13;7.97;;;;;;;13.68;100.00;100998.53;6184947;23;19997;-90
2022/10/23 08:33:50;;;;;;;15.25;7.57;;;;;;;13.74;100.00;100987.88;6184688;23;20012;-88
2022/10/23 08:36:19;;;;;;;16.17;7.63;;;;;;;13.85;100.00;100997.03;6182366;23;20448;-88
2022/10/23 08:38:45;;;;;;;14.57;7.63;;;;;;;13.88;100.00;100993.47;6181411;23;20024;-90
2022/10/23 08:41:41;;;;;;;15.88;7.65;;;;;;;14.02;100.00;100985.19;6183145;23;20001;-89
2022/10/23 08:44:29;;;;;;;13.70;7.65;;;;;;;14.11;100.00;100983.09;6151868;23;20016;-91
2022/10/23 08:47:12;;;;;;;13.15;7.35;;;;;;;14.16;100.00;100978.56;6184474;23;20059;-90
2022/10/23 08:49:46;;;;;;;12.15;7.63;;;;;;;14.14;100.00;100967.34;6183285;23;20031;-90
2022/10/23 08:52:34;;;;;;;11.27;7.25;;;;;;;14.16;100.00;100969.91;6184843;23;20552;-89
2022/10/23 08:55:15;;;;;;;16.65;7.53;;;;;;;14.15;100.00;100965.59;6151765;23;20025;-90
2022/10/23 08:57:56;;;;;;;13.90;6.97;;;;;;;14.09;100.00;100966.66;6184296;23;20009;-90
2022/10/23 09:00:25;;;;;;;15.18;7.82;;;;;;;14.12;100.00;100965.72;6184420;23;20423;-90
2022/10/23 09:02:52;;;;;;;12.00;7.13;;;;;;;14.15;100.00;100968.19;6184884;23;20005;-89
2022/10/23 09:05:29;;;;;;;12.98;6.88;;;;;;;14.20;100.00;100964.50;6183111;23;20009;-90
2022/10/23 09:08:13;;;;;;;14.50;7.50;;;;;;;14.24;100.00;100960.88;6183264;23;20011;-89
2022/10/23 09:11:05;;;;;;;13.97;6.53;;;;;;;14.28;100.00;100956.41;6183033;23;20391;-89
2022/10/23 09:14:12;;;;;;;11.88;6.75;;;;;;;14.31;100.00;100947.63;6183331;23;20358;-89
2022/10/23 09:16:53;;;;;;;12.38;6.07;;;;;;;14.32;100.00;100952.78;6182897;23;20011;-89
2022/10/23 09:19:25;;;;;;;12.82;6.22;;;;;;;14.34;100.00;100942.28;6184273;23;20008;-89
2022/10/23 09:21:50;;;;;;;12.70;6.80;;;;;;;14.33;100.00;100930.16;6183085;23;20379;-88
2022/10/23 09:24:20;;;;;;;12.15;6.28;;;;;;;14.36;100.00;100932.66;6184741;23;20380;-89
2022/10/23 09:26:48;;;;;;;12.30;6.43;;;;;;;14.39;100.00;100927.38;6181787;23;20005;-89
2022/10/23 09:29:36;;;;;;;11.82;6.57;;;;;;;14.51;100.00;100921.66;6181152;23;20262;-89
2022/10/23 09:32:04;;;;;;;11.38;6.20;;;;;;;14.54;100.00;100918.94;6183859;23;20098;-89
2022/10/23 09:34:32;;;;;;;12.13;6.28;;;;;;;14.62;100.00;100922.94;6184453;23;20035;-89
2022/10/23 09:37:16;;;;;;;11.45;6.85;;;;;;;14.62;100.00;100922.09;6182728;23;20016;-89
2022/10/23 09:39:41;;;;;;;11.50;6.60;;;;;;;14.68;100.00;100914.03;6184630;23;20031;-88
2022/10/23 09:42:21;;;;;;;13.73;6.60;;;;;;;14.70;100.00;100919.19;6183011;23;20079;-89
2022/10/23 09:44:49;;;;;;;13.43;5.82;;;;;;;14.67;100.00;100908.88;6179377;23;20012;-88
2022/10/23 09:47:19;;;;;;;11.68;6.03;;;;;;;14.67;100.00;100899.28;6182659;23;20001;-89
2022/10/23 09:49:50;;;;;;;14.68;6.45;;;;;;;14.71;100.00;100898.25;6181560;23;20080;-89
2022/10/23 09:52:16;;;;;;;13.88;6.28;;;;;;;14.76;100.00;100901.53;6182369;23;20499;-89
2022/10/23 09:54:49;;;;;;;11.23;6.13;;;;;;;14.80;100.00;100894.44;6182866;23;20037;-89
2022/10/23 09:57:43;;;;;;;15.55;6.13;;;;;;;14.82;100.00;100889.97;6182908;23;20001;-89
2022/10/23 10:00:18;;;;;;;12.20;6.10;;;;;;;14.86;100.00;100882.00;6164649;23;20005;-88
2022/10/23 10:03:04;;;;;;;10.18;5.95;;;;;;;14.88;100.00;100882.75;6183302;23;20007;-88
2022/10/23 10:05:38;;;;;;;14.27;5.95;;;;;;;14.92;100.00;100891.31;6182376;23;20005;-88
2022/10/23 10:08:19;;;;;;;13.20;5.80;;;;;;;14.96;100.00;100879.84;6181444;23;20095;-87
2022/10/23 10:10:48;;;;;;;12.27;6.15;;;;;;;14.96;100.00;100869.41;6182600;23;20339;-87
2022/10/23 10:13:31;;;;;;;12.02;5.90;;;;;;;15.06;100.00;100860.28;6181715;23;20001;-87
2022/10/23 10:16:23;;;;;;;12.70;5.45;;;;;;;15.10;100.00;100856.63;6182715;23;20031;-88
2022/10/23 10:19:16;;;;;;;12.35;5.75;;;;;;;15.17;100.00;100846.75;6181352;23;20033;-87
2022/10/23 10:21:50;;;;;;;11.95;6.10;;;;;;;15.16;100.00;100843.28;6182598;23;20061;-87
2022/10/23 10:24:33;;;;;;;11.52;6.45;;;;;;;15.18;100.00;100836.25;6182249;23;20001;-87
2022/10/23 10:27:18;;;;;;;11.13;6.05;;;;;;;15.19;100.00;100826.66;6182124;23;20005;-87
2022/10/23 10:30:04;;;;;;;9.35;5.50;;;;;;;15.24;100.00;100824.69;6181870;23;20001;-87
2022/10/23 10:32:50;;;;;;;11.25;6.28;;;;;;;15.27;100.00;100819.34;6179550;23;20063;-87
2022/10/23 10:35:42;;;;;;;10.68;6.00;;;;;;;15.28;100.00;100811.47;6181915;23;20029;-88
2022/10/23 10:38:16;;;;;;;14.70;6.55;;;;;;;15.35;100.00;100817.25;6180176;23;20435;-87
2022/10/23 10:40:57;;;;;;;11.80;6.35;;;;;;;15.35;100.00;100823.31;6179961;23;20075;-87
2022/10/23 10:43:40;;;;;;;14.20;6.75;;;;;;;15.45;100.00;100829.00;6179732;23;20060;-87
2022/10/23 10:46:20;;;;;;;12.35;6.55;;;;;;;15.50;100.00;100819.16;6181960;23;20092;-87
2022/10/23 10:48:53;;;;;;;12.27;6.22;;;;;;;15.54;100.00;100817.31;6180672;23;20016;-87
2022/10/23 10:51:34;;;;;;;13.55;6.30;;;;;;;15.60;100.00;100812.66;6181054;23;20005;-88
2022/10/23 10:54:14;;;;;;;11.60;6.18;;;;;;;15.71;100.00;100807.78;6181748;23;20017;-87
2022/10/23 10:56:43;;;;;;;9.13;6.28;;;;;;;15.80;100.00;100817.84;6179415;23;20008;-87
2022/10/23 10:59:30;;;;;;;10.07;5.95;;;;;;;15.92;100.00;100799.88;6180132;23;20001;-87
2022/10/23 11:02:05;;;;;;;11.75;6.07;;;;;;;16.00;100.00;100793.38;6179030;23;20343;-87
2022/10/23 11:04:44;;;;;;;11.20;6.68;;;;;;;16.08;100.00;100774.72;6181032;23;20009;-88
2022/10/23 11:07:14;;;;;;;12.45;6.25;;;;;;;16.18;100.00;100789.03;6181290;23;20005;-87
2022/10/23 11:09:41;;;;;;;14.65;6.40;;;;;;;16.30;100.00;100783.25;6179939;23;20001;-87
2022/10/23 11:12:19;;;;;;;10.82;5.90;;;;;;;16.42;100.00;100787.03;6180780;23;20016;-87
2022/10/23 11:14:45;;;;;;;12.18;6.50;;;;;;;16.49;100.00;100765.72;6181709;23;20005;-87
2022/10/23 11:17:18;;;;;;;13.55;5.88;;;;;;;16.54;100.00;100763.72;6180713;23;20028;-87
2022/10/23 11:19:57;;;;;;;13.65;5.70;;;;;;;16.62;100.00;100773.00;6180164;23;20005;-88
2022/10/23 11:22:36;;;;;;;12.48;6.13;;;;;;;16.68;100.00;100768.31;6180345;23;20433;-87